sensor_id;sensor_type;location;lat;lon;timestamp;temperature;humidity
65864;SHT30;52639;51.180;20.460;2023-07-16T00:03:10;16.29;78.81
65864;SHT30;52639;51.180;20.460;2023-07-16T00:07:15;16.35;78.65
65864;SHT30;52639;51.180;20.460;2023-07-16T03:11:37;16.08;82.17
65864;SHT30;52639;51.180;20.460;2023-07-16T03:15:41;16.15;81.98
65864;SHT30;52639;51.180;20.460;2023-07-16T03:19:44;16.25;81.83
65864;SHT30;52639;51.180;20.460;2023-07-16T03:23:49;16.39;81.79
65864;SHT30;52639;51.180;20.460;2023-07-16T03:27:59;16.55;81.42
65864;SHT30;52639;51.180;20.460;2023-07-16T03:32:05;16.66;81.59
65864;SHT30;52639;51.180;20.460;2023-07-16T03:36:11;16.91;81.91
65864;SHT30;52639;51.180;20.460;2023-07-16T03:40:18;17.11;81.60
65864;SHT30;52639;51.180;20.460;2023-07-16T03:44:25;17.26;81.15
65864;SHT30;52639;51.180;20.460;2023-07-16T06:05:09;43.33;35.38
65864;SHT30;52639;51.180;20.460;2023-07-16T06:09:12;42.66;35.97
65864;SHT30;52639;51.180;20.460;2023-07-16T06:13:15;41.66;36.57
65864;SHT30;52639;51.180;20.460;2023-07-16T06:17:18;42.86;34.68
65864;SHT30;52639;51.180;20.460;2023-07-16T06:21:22;43.10;33.87
65864;SHT30;52639;51.180;20.460;2023-07-16T06:25:25;43.97;32.71
65864;SHT30;52639;51.180;20.460;2023-07-16T06:29:28;43.37;33.40
65864;SHT30;52639;51.180;20.460;2023-07-16T06:33:31;44.03;32.39
65864;SHT30;52639;51.180;20.460;2023-07-16T06:37:35;44.08;32.11
65864;SHT30;52639;51.180;20.460;2023-07-16T06:41:38;44.41;31.90
65864;SHT30;52639;51.180;20.460;2023-07-16T06:45:41;44.83;31.45
65864;SHT30;52639;51.180;20.460;2023-07-16T06:55:14;44.72;32.15
65864;SHT30;52639;51.180;20.460;2023-07-16T07:20:17;44.13;32.08
65864;SHT30;52639;51.180;20.460;2023-07-16T07:24:20;44.57;31.10
65864;SHT30;52639;51.180;20.460;2023-07-16T07:28:24;44.82;30.53
65864;SHT30;52639;51.180;20.460;2023-07-16T07:32:37;43.86;30.60
65864;SHT30;52639;51.180;20.460;2023-07-16T07:37:27;43.61;31.72
65864;SHT30;52639;51.180;20.460;2023-07-16T08:01:09;42.86;31.09
65864;SHT30;52639;51.180;20.460;2023-07-16T08:05:14;43.47;30.81
65864;SHT30;52639;51.180;20.460;2023-07-16T08:09:18;42.00;32.49
65864;SHT30;52639;51.180;20.460;2023-07-16T08:22:39;41.47;34.12
65864;SHT30;52639;51.180;20.460;2023-07-16T08:52:24;40.59;35.40
65864;SHT30;52639;51.180;20.460;2023-07-16T08:56:33;40.11;35.54
65864;SHT30;52639;51.180;20.460;2023-07-16T09:00:41;40.32;34.94
65864;SHT30;52639;51.180;20.460;2023-07-16T09:04:50;39.88;35.68
65864;SHT30;52639;51.180;20.460;2023-07-16T09:08:58;40.15;35.57
65864;SHT30;52639;51.180;20.460;2023-07-16T09:13:03;39.51;36.66
65864;SHT30;52639;51.180;20.460;2023-07-16T09:17:30;38.98;37.12
65864;SHT30;52639;51.180;20.460;2023-07-16T09:21:34;39.09;36.95
65864;SHT30;52639;51.180;20.460;2023-07-16T09:25:43;38.89;36.84
65864;SHT30;52639;51.180;20.460;2023-07-16T09:29:46;38.00;38.27
65864;SHT30;52639;51.180;20.460;2023-07-16T09:33:51;38.14;37.89
65864;SHT30;52639;51.180;20.460;2023-07-16T09:37:59;38.35;37.73
65864;SHT30;52639;51.180;20.460;2023-07-16T09:42:06;37.65;38.64
65864;SHT30;52639;51.180;20.460;2023-07-16T09:46:10;36.97;39.59
65864;SHT30;52639;51.180;20.460;2023-07-16T09:50:14;36.66;39.94
65864;SHT30;52639;51.180;20.460;2023-07-16T09:54:17;37.31;39.27
65864;SHT30;52639;51.180;20.460;2023-07-16T09:58:35;36.56;40.19
65864;SHT30;52639;51.180;20.460;2023-07-16T10:02:39;36.05;41.49
65864;SHT30;52639;51.180;20.460;2023-07-16T10:06:55;36.31;40.04
65864;SHT30;52639;51.180;20.460;2023-07-16T10:11:01;35.33;41.30
65864;SHT30;52639;51.180;20.460;2023-07-16T10:15:12;35.42;40.77
65864;SHT30;52639;51.180;20.460;2023-07-16T10:19:23;35.26;41.12
65864;SHT30;52639;51.180;20.460;2023-07-16T10:23:37;35.13;41.58
65864;SHT30;52639;51.180;20.460;2023-07-16T10:33:03;34.63;41.60
65864;SHT30;52639;51.180;20.460;2023-07-16T10:57:38;34.93;41.12
65864;SHT30;52639;51.180;20.460;2023-07-16T11:01:42;35.03;40.59
65864;SHT30;52639;51.180;20.460;2023-07-16T11:59:15;33.65;42.06
65864;SHT30;52639;51.180;20.460;2023-07-16T12:03:24;33.27;42.92
65864;SHT30;52639;51.180;20.460;2023-07-16T13:23:42;32.40;42.56
65864;SHT30;52639;51.180;20.460;2023-07-16T13:27:55;32.32;42.61
65864;SHT30;52639;51.180;20.460;2023-07-16T13:32:09;31.96;42.69
65864;SHT30;52639;51.180;20.460;2023-07-16T13:36:14;31.83;42.44
65864;SHT30;52639;51.180;20.460;2023-07-16T13:40:20;32.22;41.88
65864;SHT30;52639;51.180;20.460;2023-07-16T13:44:28;31.96;42.68
65864;SHT30;52639;51.180;20.460;2023-07-16T13:48:33;31.76;42.71
65864;SHT30;52639;51.180;20.460;2023-07-16T13:52:40;32.03;42.25
65864;SHT30;52639;51.180;20.460;2023-07-16T13:56:48;32.17;42.77
65864;SHT30;52639;51.180;20.460;2023-07-16T14:00:52;31.92;43.40
65864;SHT30;52639;51.180;20.460;2023-07-16T14:21:55;32.61;40.87
65864;SHT30;52639;51.180;20.460;2023-07-16T14:25:59;32.71;40.94
65864;SHT30;52639;51.180;20.460;2023-07-16T14:30:06;32.59;41.46
65864;SHT30;52639;51.180;20.460;2023-07-16T14:34:12;31.90;42.63
65864;SHT30;52639;51.180;20.460;2023-07-16T15:07:51;31.21;45.08
65864;SHT30;52639;51.180;20.460;2023-07-16T15:11:56;31.39;44.96
65864;SHT30;52639;51.180;20.460;2023-07-16T15:15:59;31.38;45.02
65864;SHT30;52639;51.180;20.460;2023-07-16T15:20:05;31.15;45.53
65864;SHT30;52639;51.180;20.460;2023-07-16T15:24:12;31.01;46.04
65864;SHT30;52639;51.180;20.460;2023-07-16T15:28:15;30.99;46.12
65864;SHT30;52639;51.180;20.460;2023-07-16T15:32:19;30.91;46.69
65864;SHT30;52639;51.180;20.460;2023-07-16T15:36:24;30.46;47.93
65864;SHT30;52639;51.180;20.460;2023-07-16T15:40:32;30.40;48.12
65864;SHT30;52639;51.180;20.460;2023-07-16T16:38:01;28.78;53.48
65864;SHT30;52639;51.180;20.460;2023-07-16T16:42:07;28.75;53.31
65864;SHT30;52639;51.180;20.460;2023-07-16T16:46:12;28.78;53.42
65864;SHT30;52639;51.180;20.460;2023-07-16T16:50:18;28.78;53.64
65864;SHT30;52639;51.180;20.460;2023-07-16T16:54:28;28.77;53.99
65864;SHT30;52639;51.180;20.460;2023-07-16T16:58:33;28.74;54.15
65864;SHT30;52639;51.180;20.460;2023-07-16T17:02:39;28.56;54.82
65864;SHT30;52639;51.180;20.460;2023-07-16T17:06:46;28.26;55.50
65864;SHT30;52639;51.180;20.460;2023-07-16T17:10:53;27.98;56.05
65864;SHT30;52639;51.180;20.460;2023-07-16T17:15:00;27.86;56.50
65864;SHT30;52639;51.180;20.460;2023-07-16T17:19:06;27.70;56.77
65864;SHT30;52639;51.180;20.460;2023-07-16T17:23:14;27.63;56.94
65864;SHT30;52639;51.180;20.460;2023-07-16T17:27:21;27.51;57.17
65864;SHT30;52639;51.180;20.460;2023-07-16T17:35:35;27.21;57.58
65864;SHT30;52639;51.180;20.460;2023-07-16T17:39:38;27.03;57.93
65864;SHT30;52639;51.180;20.460;2023-07-16T17:47:54;26.70;58.81
65864;SHT30;52639;51.180;20.460;2023-07-16T17:51:57;26.17;60.71
65864;SHT30;52639;51.180;20.460;2023-07-16T17:56:01;25.74;62.19
65864;SHT30;52639;51.180;20.460;2023-07-16T18:00:06;25.45;63.12
65864;SHT30;52639;51.180;20.460;2023-07-16T18:04:12;25.20;64.15
65864;SHT30;52639;51.180;20.460;2023-07-16T18:08:15;26.41;59.80
65864;SHT30;52639;51.180;20.460;2023-07-16T19:08:33;22.77;66.47
65864;SHT30;52639;51.180;20.460;2023-07-16T19:26:12;22.39;67.35
65864;SHT30;52639;51.180;20.460;2023-07-16T19:30:17;22.14;67.78
65864;SHT30;52639;51.180;20.460;2023-07-16T19:34:23;22.14;67.98
65864;SHT30;52639;51.180;20.460;2023-07-16T19:38:29;22.05;68.07
65864;SHT30;52639;51.180;20.460;2023-07-16T19:42:37;21.79;68.71
65864;SHT30;52639;51.180;20.460;2023-07-16T19:46:43;21.68;68.82
65864;SHT30;52639;51.180;20.460;2023-07-16T19:50:49;21.52;69.21
65864;SHT30;52639;51.180;20.460;2023-07-16T19:54:56;21.52;69.34
65864;SHT30;52639;51.180;20.460;2023-07-16T20:11:42;20.90;70.72
65864;SHT30;52639;51.180;20.460;2023-07-16T20:15:46;20.83;70.85
65864;SHT30;52639;51.180;20.460;2023-07-16T20:19:50;20.87;70.63
65864;SHT30;52639;51.180;20.460;2023-07-16T20:23:55;20.66;71.27
65864;SHT30;52639;51.180;20.460;2023-07-16T20:28:01;20.73;71.28
65864;SHT30;52639;51.180;20.460;2023-07-16T20:32:06;20.74;71.30
65864;SHT30;52639;51.180;20.460;2023-07-16T20:36:10;20.88;71.20
65864;SHT30;52639;51.180;20.460;2023-07-16T20:40:15;20.73;71.77
65864;SHT30;52639;51.180;20.460;2023-07-16T20:44:22;20.49;72.73
65864;SHT30;52639;51.180;20.460;2023-07-16T20:48:26;20.30;73.50
65864;SHT30;52639;51.180;20.460;2023-07-16T20:52:29;20.16;73.81
65864;SHT30;52639;51.180;20.460;2023-07-16T20:56:34;20.12;74.05
65864;SHT30;52639;51.180;20.460;2023-07-16T21:00:44;20.29;73.71
65864;SHT30;52639;51.180;20.460;2023-07-16T21:04:50;20.16;73.97
65864;SHT30;52639;51.180;20.460;2023-07-16T21:08:55;20.09;74.16
65864;SHT30;52639;51.180;20.460;2023-07-16T21:13:02;19.93;74.57
65864;SHT30;52639;51.180;20.460;2023-07-16T21:17:10;19.82;74.94
65864;SHT30;52639;51.180;20.460;2023-07-16T21:21:13;19.64;75.24
65864;SHT30;52639;51.180;20.460;2023-07-16T21:25:19;19.54;75.43
65864;SHT30;52639;51.180;20.460;2023-07-16T21:29:25;19.44;75.64
65864;SHT30;52639;51.180;20.460;2023-07-16T21:33:33;19.37;75.95
65864;SHT30;52639;51.180;20.460;2023-07-16T21:37:36;19.30;76.03
65864;SHT30;52639;51.180;20.460;2023-07-16T21:41:42;19.18;76.38
65864;SHT30;52639;51.180;20.460;2023-07-16T21:45:47;19.10;76.52
65864;SHT30;52639;51.180;20.460;2023-07-16T21:49:54;19.03;76.77
65864;SHT30;52639;51.180;20.460;2023-07-16T21:54:00;18.87;77.04
65864;SHT30;52639;51.180;20.460;2023-07-16T21:58:06;18.76;77.44
65864;SHT30;52639;51.180;20.460;2023-07-16T22:02:10;18.83;77.47
65864;SHT30;52639;51.180;20.460;2023-07-16T22:06:19;18.81;77.63
65864;SHT30;52639;51.180;20.460;2023-07-16T22:10:25;18.84;77.56
65864;SHT30;52639;51.180;20.460;2023-07-16T22:14:31;18.74;77.85
65864;SHT30;52639;51.180;20.460;2023-07-16T22:18:37;18.56;78.19
65864;SHT30;52639;51.180;20.460;2023-07-16T22:22:44;18.53;78.55
65864;SHT30;52639;51.180;20.460;2023-07-16T22:26:47;18.53;78.70
65864;SHT30;52639;51.180;20.460;2023-07-16T22:30:53;18.49;78.83
65864;SHT30;52639;51.180;20.460;2023-07-16T22:35:02;18.39;79.09
65864;SHT30;52639;51.180;20.460;2023-07-16T22:39:12;18.33;79.25
65864;SHT30;52639;51.180;20.460;2023-07-16T22:43:17;18.18;79.40
65864;SHT30;52639;51.180;20.460;2023-07-16T22:47:22;18.05;79.55
65864;SHT30;52639;51.180;20.460;2023-07-16T22:51:26;17.99;79.77
65864;SHT30;52639;51.180;20.460;2023-07-16T22:55:33;17.95;80.29
